Time;durP1;ratioP1;P1;durP2;ratioP2;P2;SDS_P1;SDS_P2;PMS_P1;PMS_P2;Temp;Humidity;BMP_temperature;BMP_pressure;BME280_temperature;BME280_humidity;BME280_pressure;Samples;Min_cycle;Max_cycle;Signal;HPM_P1;HPM_P2
2022/10/07 00:00:50;;;;;;;4.90;3.45;;;6.10;99.90;;;;;;5090241;28;20022;-86
2022/10/07 00:03:18;;;;;;;3.42;2.75;;;6.00;99.90;;;;;;5081258;28;20024;-85
2022/10/07 00:05:44;;;;;;;6.28;2.92;;;6.00;99.90;;;;;;5057974;28;20112;-86
2022/10/07 00:08:10;;;;;;;7.35;2.72;;;5.90;99.90;;;;;;5073237;28;20028;-85
2022/10/07 00:10:41;;;;;;;3.53;2.63;;;6.00;99.90;;;;;;5077303;28;20024;-86
2022/10/07 00:13:08;;;;;;;8.90;3.38;;;5.90;99.90;;;;;;5072683;28;20036;-86
2022/10/07 00:15:35;;;;;;;6.57;3.40;;;5.90;99.90;;;;;;5085422;28;20107;-86
2022/10/07 00:18:01;;;;;;;6.53;3.15;;;5.90;99.90;;;;;;5065697;28;20029;-85
2022/10/07 00:20:27;;;;;;;5.10;3.05;;;5.90;99.90;;;;;;5088414;28;20017;-85
2022/10/07 00:22:53;;;;;;;4.55;3.95;;;5.80;99.90;;;;;;5072534;28;20036;-86
2022/10/07 00:25:20;;;;;;;4.88;2.58;;;5.80;99.90;;;;;;5054270;28;20120;-85
2022/10/07 00:27:45;;;;;;;3.42;2.50;;;5.70;99.90;;;;;;5056300;28;20040;-86
2022/10/07 00:30:12;;;;;;;7.72;2.60;;;5.70;99.90;;;;;;5089947;28;20027;-85
2022/10/07 00:32:38;;;;;;;4.93;2.47;;;5.70;99.90;;;;;;5070421;28;20036;-85
2022/10/07 00:35:04;;;;;;;3.80;2.53;;;5.60;99.90;;;;;;5075690;28;20028;-86
2022/10/07 00:37:29;;;;;;;4.15;2.78;;;5.60;99.90;;;;;;5071333;28;20040;-85
2022/10/07 00:39:55;;;;;;;4.78;2.65;;;5.60;99.90;;;;;;5072681;28;20409;-86
2022/10/07 00:42:21;;;;;;;6.15;2.53;;;5.60;99.90;;;;;;5068949;28;20029;-85
2022/10/07 00:44:47;;;;;;;3.53;2.63;;;5.60;99.90;;;;;;5052778;28;20043;-86
2022/10/07 00:47:23;;;;;;;5.18;3.05;;;5.60;99.90;;;;;;5083615;28;20099;-85
2022/10/07 00:50:06;;;;;;;4.10;3.10;;;5.50;99.90;;;;;;5086562;28;20438;-85
2022/10/07 00:52:43;;;;;;;4.15;2.53;;;5.50;99.90;;;;;;5089412;28;20035;-85
2022/10/07 00:55:13;;;;;;;4.30;2.42;;;5.40;99.90;;;;;;5055953;28;20028;-86
2022/10/07 00:57:41;;;;;;;4.05;2.88;;;5.40;99.90;;;;;;5051541;28;20037;-87
2022/10/07 01:00:08;;;;;;;5.68;2.88;;;5.40;99.90;;;;;;5056652;28;20048;-86
2022/10/07 01:02:35;;;;;;;4.55;2.70;;;5.40;99.90;;;;;;5066227;28;20412;-86
2022/10/07 01:05:05;;;;;;;4.45;2.72;;;5.40;99.90;;;;;;5068336;28;20678;-86
2022/10/07 01:07:31;;;;;;;4.90;2.58;;;5.30;99.90;;;;;;5055129;28;20050;-86
2022/10/07 01:09:59;;;;;;;4.60;2.92;;;5.30;99.90;;;;;;5055584;28;20028;-85
2022/10/07 01:12:37;;;;;;;6.68;2.90;;;5.30;99.90;;;;;;5055254;28;20039;-86
2022/10/07 01:15:12;;;;;;;6.07;2.40;;;5.30;99.90;;;;;;5077932;28;20067;-86
2022/10/07 01:17:52;;;;;;;7.72;4.05;;;5.30;99.90;;;;;;5081679;28;20056;-87
2022/10/07 01:20:28;;;;;;;4.57;2.78;;;5.30;99.90;;;;;;5080465;28;20032;-86
2022/10/07 01:23:18;;;;;;;3.75;2.65;;;5.30;99.90;;;;;;5056792;28;20031;-86
2022/10/07 01:25:55;;;;;;;5.18;2.50;;;5.20;99.90;;;;;;5069717;28;20036;-86
2022/10/07 01:28:45;;;;;;;5.75;3.33;;;5.20;99.90;;;;;;5088992;28;20497;-86
2022/10/07 01:31:16;;;;;;;4.68;2.88;;;5.20;99.90;;;;;;5088693;28;20151;-86
2022/10/07 01:33:44;;;;;;;7.07;4.40;;;5.10;99.90;;;;;;5048465;28;20040;-86
2022/10/07 01:36:14;;;;;;;5.53;2.85;;;5.10;99.90;;;;;;5068328;28;20089;-86
2022/10/07 01:38:44;;;;;;;3.75;2.95;;;5.10;99.90;;;;;;5072071;28;20708;-85
2022/10/07 01:41:16;;;;;;;5.25;2.80;;;5.10;99.90;;;;;;5067832;28;20496;-85
2022/10/07 01:43:44;;;;;;;4.28;2.88;;;5.10;99.90;;;;;;5052435;28;20055;-87
2022/10/07 01:46:21;;;;;;;5.95;2.50;;;5.10;99.90;;;;;;5060676;28;20085;-87
2022/10/07 01:48:48;;;;;;;6.18;3.20;;;5.10;99.90;;;;;;5070758;28;20025;-85
2022/10/07 01:51:17;;;;;;;6.53;3.67;;;5.10;99.90;;;;;;5084334;28;20039;-86
2022/10/07 01:54:17;;;;;;;4.43;3.08;;;5.10;99.90;;;;;;5086905;28;20036;-86
2022/10/07 01:57:03;;;;;;;6.30;3.60;;;5.00;99.90;;;;;;5081573;28;20481;-85
2022/10/07 01:59:50;;;;;;;;;;;5.10;99.90;;;;;;5057033;28;20085;-85
2022/10/07 02:02:29;;;;;;;6.18;3.15;;;5.10;99.90;;;;;;5088737;28;19912;-86
2022/10/07 02:05:04;;;;;;;8.52;3.53;;;5.10;99.90;;;;;;5065190;28;20035;-86
2022/10/07 02:07:36;;;;;;;4.07;3.25;;;5.10;99.90;;;;;;5070087;28;20028;-86
2022/10/07 02:10:05;;;;;;;7.50;2.92;;;5.10;99.90;;;;;;5090207;28;20028;-86
2022/10/07 02:12:47;;;;;;;3.83;3.03;;;5.00;99.90;;;;;;5075717;28;20028;-86
2022/10/07 02:15:18;;;;;;;3.83;2.70;;;5.00;99.90;;;;;;5075421;28;20077;-85
2022/10/07 02:17:54;;;;;;;3.55;2.92;;;5.00;99.90;;;;;;5071876;28;20036;-86
2022/10/07 02:20:24;;;;;;;6.75;3.00;;;5.00;99.90;;;;;;5072178;28;20672;-85
2022/10/07 02:22:52;;;;;;;3.83;2.83;;;5.00;99.90;;;;;;5086934;28;20058;-86
2022/10/07 02:25:19;;;;;;;2.67;2.47;;;5.00;99.90;;;;;;5056630;28;20036;-86
2022/10/07 02:27:50;;;;;;;3.50;2.97;;;5.00;99.90;;;;;;5092336;28;20054;-86
2022/10/07 02:30:19;;;;;;;4.82;2.75;;;5.00;99.90;;;;;;5026256;28;20060;-86
2022/10/07 02:32:52;;;;;;;3.55;2.22;;;5.00;99.90;;;;;;5057875;28;20612;-87
2022/10/07 02:35:30;;;;;;;2.65;2.40;;;5.00;99.90;;;;;;5087838;28;20054;-85
2022/10/07 02:38:01;;;;;;;5.75;2.38;;;5.00;99.90;;;;;;5076793;28;20044;-87
2022/10/07 02:40:38;;;;;;;3.15;2.60;;;5.00;99.90;;;;;;5042910;28;20052;-86
2022/10/07 02:43:22;;;;;;;4.32;2.35;;;5.00;99.90;;;;;;5075409;28;20035;-87
2022/10/07 02:45:56;;;;;;;4.38;2.35;;;5.00;99.90;;;;;;5086247;28;20469;-86
2022/10/07 02:48:30;;;;;;;3.17;2.50;;;4.90;99.90;;;;;;5072748;28;20074;-86
2022/10/07 02:51:01;;;;;;;3.08;2.65;;;4.90;99.90;;;;;;5089301;28;20023;-85
2022/10/07 02:53:31;;;;;;;7.85;2.45;;;4.90;99.90;;;;;;5071402;28;20397;-85
2022/10/07 02:55:59;;;;;;;3.35;2.38;;;4.90;99.90;;;;;;5067795;28;20489;-86
2022/10/07 02:58:26;;;;;;;5.70;2.80;;;4.90;99.90;;;;;;5058216;28;20077;-86
2022/10/07 03:00:57;;;;;;;3.75;2.40;;;4.80;99.90;;;;;;5058181;28;20112;-85
2022/10/07 03:03:24;;;;;;;5.45;2.60;;;4.80;99.90;;;;;;5065297;28;20025;-86
2022/10/07 03:06:22;;;;;;;3.97;2.13;;;4.80;99.90;;;;;;5079670;28;20056;-85
2022/10/07 03:08:51;;;;;;;5.03;2.70;;;4.80;99.90;;;;;;5087115;28;20504;-86
2022/10/07 03:11:17;;;;;;;4.72;2.40;;;4.80;99.90;;;;;;5090471;28;20066;-86
2022/10/07 03:13:44;;;;;;;2.90;2.33;;;4.80;99.90;;;;;;5069499;28;20367;-85
2022/10/07 03:16:11;;;;;;;3.88;2.58;;;4.80;99.90;;;;;;5057366;28;20089;-85
2022/10/07 03:18:37;;;;;;;3.45;2.40;;;4.80;99.90;;;;;;5033485;28;20032;-85
2022/10/07 03:21:35;;;;;;;4.57;2.75;;;4.80;99.90;;;;;;5050243;28;20040;-86
2022/10/07 03:24:03;;;;;;;4.15;2.55;;;4.80;99.90;;;;;;5038982;28;20024;-84
2022/10/07 03:26:34;;;;;;;4.05;2.50;;;4.70;99.90;;;;;;5057924;28;20020;-84
2022/10/07 03:29:01;;;;;;;6.07;2.60;;;4.70;99.90;;;;;;5090535;28;20032;-84
2022/10/07 03:31:28;;;;;;;6.97;2.58;;;4.70;99.90;;;;;;5056622;28;20507;-84
2022/10/07 03:33:57;;;;;;;6.95;2.47;;;4.70;99.90;;;;;;5054087;28;20032;-83
2022/10/07 03:36:23;;;;;;;5.15;2.45;;;4.60;99.90;;;;;;5049166;28;20035;-85
2022/10/07 03:38:50;;;;;;;3.38;2.20;;;4.60;99.90;;;;;;5061024;28;20373;-84
2022/10/07 03:41:18;;;;;;;6.35;2.00;;;4.70;99.90;;;;;;5062289;28;20613;-85
2022/10/07 03:43:45;;;;;;;5.22;2.10;;;4.60;99.90;;;;;;5065489;28;20028;-84
2022/10/07 03:46:16;;;;;;;2.67;1.92;;;4.60;99.90;;;;;;5062361;28;20093;-83
2022/10/07 03:48:42;;;;;;;2.15;1.77;;;4.60;99.90;;;;;;5040441;28;20060;-84
2022/10/07 03:51:08;;;;;;;3.83;1.80;;;4.60;99.90;;;;;;5029166;28;20206;-83
2022/10/07 03:53:38;;;;;;;2.85;1.95;;;4.60;99.90;;;;;;5068340;28;20036;-83
2022/10/07 03:56:04;;;;;;;4.47;1.88;;;4.60;99.90;;;;;;5089522;28;20396;-86
2022/10/07 03:58:31;;;;;;;2.65;2.05;;;4.60;99.90;;;;;;5055224;28;20028;-84
2022/10/07 04:01:09;;;;;;;7.03;2.20;;;4.60;99.90;;;;;;5071634;28;20016;-85
2022/10/07 04:03:37;;;;;;;3.38;2.03;;;4.60;99.90;;;;;;5056910;28;20028;-84
2022/10/07 04:06:04;;;;;;;5.57;2.80;;;4.50;99.90;;;;;;5072267;28;20044;-85
2022/10/07 04:08:33;;;;;;;4.18;2.08;;;4.50;99.90;;;;;;5026979;28;20443;-84
2022/10/07 04:11:01;;;;;;;2.55;2.03;;;4.50;99.90;;;;;;5063469;28;20057;-86
2022/10/07 04:13:29;;;;;;;2.03;1.58;;;4.50;99.90;;;;;;5069163;28;20033;-85
2022/10/07 04:15:56;;;;;;;3.42;2.10;;;4.50;99.90;;;;;;5050622;28;20040;-86
2022/10/07 04:18:23;;;;;;;4.03;1.80;;;4.50;99.90;;;;;;5063910;28;20358;-86
2022/10/07 04:20:50;;;;;;;4.43;2.17;;;4.50;99.90;;;;;;5072335;28;20115;-85
2022/10/07 04:23:16;;;;;;;4.63;2.30;;;4.50;99.90;;;;;;5074545;28;20082;-84
2022/10/07 04:25:44;;;;;;;2.55;1.88;;;4.50;99.90;;;;;;5029357;28;20017;-86
2022/10/07 04:28:19;;;;;;;2.58;2.00;;;4.50;99.90;;;;;;5073785;28;20028;-86
2022/10/07 04:30:50;;;;;;;4.82;2.30;;;4.50;99.90;;;;;;5089098;28;20028;-85
2022/10/07 04:33:19;;;;;;;8.00;2.30;;;4.50;99.90;;;;;;5090244;28;20501;-85
2022/10/07 04:35:45;;;;;;;3.55;2.60;;;4.40;99.90;;;;;;5089281;28;20434;-85
2022/10/07 04:38:13;;;;;;;3.35;1.90;;;4.40;99.90;;;;;;5065045;28;20070;-84
2022/10/07 04:40:43;;;;;;;4.50;2.33;;;4.40;99.90;;;;;;5041526;28;20033;-86
2022/10/07 04:43:18;;;;;;;3.65;1.90;;;4.40;99.90;;;;;;5073579;28;20170;-86
2022/10/07 04:45:46;;;;;;;8.73;2.58;;;4.40;99.90;;;;;;5081749;28;20027;-84
2022/10/07 04:48:19;;;;;;;3.08;2.10;;;4.40;99.90;;;;;;5057112;28;20373;-86
2022/10/07 04:50:45;;;;;;;7.22;2.20;;;4.40;99.90;;;;;;5057069;28;20685;-87
2022/10/07 04:53:13;;;;;;;3.35;2.22;;;4.40;99.90;;;;;;5081909;28;20028;-87
2022/10/07 04:55:50;;;;;;;4.63;2.53;;;4.30;99.90;;;;;;5074629;28;20073;-87
2022/10/07 04:58:17;;;;;;;4.65;2.40;;;4.40;99.90;;;;;;5089231;28;20033;-86
2022/10/07 05:00:49;;;;;;;2.72;2.03;;;4.40;99.90;;;;;;5074827;28;20024;-87
2022/10/07 05:03:18;;;;;;;2.22;2.03;;;4.50;99.90;;;;;;5073393;28;20028;-86
2022/10/07 05:05:47;;;;;;;3.70;2.20;;;4.40;99.90;;;;;;5060072;28;20024;-86
2022/10/07 05:08:15;;;;;;;3.72;2.20;;;4.40;99.90;;;;;;5072852;28;20032;-86
2022/10/07 05:10:42;;;;;;;11.13;3.47;;;4.40;99.90;;;;;;5062435;28;20024;-83
2022/10/07 05:13:13;;;;;;;2.30;2.10;;;4.40;99.90;;;;;;5088654;28;20032;-84
2022/10/07 12:12:21;;;;;;;;;;;15.40;99.90;;;;;;5090672;27;20114;-82
2022/10/07 12:14:59;;;;;;;4.38;1.70;;;15.40;99.90;;;;;;5084738;28;19915;-83
2022/10/07 12:17:28;;;;;;;6.50;1.55;;;15.40;99.90;;;;;;5046723;28;20024;-83
2022/10/07 12:20:31;;;;;;;2.88;1.50;;;15.40;99.90;;;;;;5050905;28;20025;-83
2022/10/07 12:23:16;;;;;;;2.47;1.30;;;15.50;99.90;;;;;;5069492;28;20033;-83
2022/10/07 12:25:45;;;;;;;4.15;1.40;;;15.60;99.90;;;;;;5055009;28;20042;-83
2022/10/07 12:28:29;;;;;;;3.50;1.52;;;15.60;99.90;;;;;;5068344;28;20032;-83
2022/10/07 12:31:00;;;;;;;3.00;1.50;;;15.70;99.90;;;;;;5086014;28;20035;-83
2022/10/07 12:33:45;;;;;;;4.25;1.42;;;15.70;99.90;;;;;;5051281;28;20549;-83
2022/10/07 12:36:20;;;;;;;1.58;1.45;;;15.80;99.90;;;;;;5079466;28;20162;-83
2022/10/07 12:39:08;;;;;;;2.83;1.60;;;15.80;99.90;;;;;;5084519;28;20033;-83
2022/10/07 12:41:34;;;;;;;1.45;1.30;;;16.00;99.90;;;;;;5081613;28;20044;-83
2022/10/07 12:44:07;;;;;;;2.42;1.30;;;16.00;99.90;;;;;;5083716;28;20035;-83
2022/10/07 12:47:21;;;;;;;3.28;1.58;;;16.10;99.90;;;;;;5073435;28;20044;-83
2022/10/07 12:49:57;;;;;;;2.85;1.58;;;15.90;99.90;;;;;;5054551;28;20131;-83
2022/10/07 12:52:51;;;;;;;2.47;1.58;;;15.90;99.90;;;;;;5075748;28;20040;-83
2022/10/07 12:55:28;;;;;;;1.95;1.55;;;15.80;99.90;;;;;;5065051;28;20028;-83
2022/10/07 13:01:00;;;;;;;2.92;1.80;;;15.80;99.90;;;;;;5077738;28;20077;-83
2022/10/07 13:04:01;;;;;;;2.67;1.40;;;15.70;99.90;;;;;;5071979;28;20040;-83
2022/10/07 13:06:58;;;;;;;1.70;1.60;;;15.90;99.90;;;;;;5082035;28;20485;-83
2022/10/07 13:10:04;;;;;;;2.38;1.42;;;16.00;99.90;;;;;;5056591;28;20045;-83
2022/10/07 13:12:38;;;;;;;3.15;1.50;;;16.10;99.90;;;;;;5082748;28;20036;-83
2022/10/07 13:15:13;;;;;;;3.23;1.27;;;16.30;99.90;;;;;;5082831;28;20032;-83
2022/10/07 13:18:01;;;;;;;3.25;1.70;;;16.30;99.90;;;;;;5082369;28;20026;-84
2022/10/07 13:20:26;;;;;;;2.40;1.63;;;16.40;99.90;;;;;;5065417;28;20067;-83
2022/10/07 13:22:53;;;;;;;3.42;1.60;;;16.50;99.90;;;;;;5057151;28;20063;-82
2022/10/07 13:25:20;;;;;;;3.08;1.27;;;16.50;99.90;;;;;;5050717;28;20057;-82
2022/10/07 13:27:54;;;;;;;5.97;2.30;;;16.50;99.90;;;;;;5069646;28;20033;-83
2022/10/07 13:30:41;;;;;;;12.10;4.50;;;16.60;99.90;;;;;;5066532;28;20021;-83
2022/10/07 13:33:20;;;;;;;2.92;1.70;;;16.60;99.90;;;;;;5023086;28;20107;-82
2022/10/07 13:35:47;;;;;;;3.60;1.40;;;16.50;99.90;;;;;;5066819;28;20029;-83
2022/10/07 13:38:21;;;;;;;2.65;1.35;;;16.60;99.90;;;;;;5049837;28;20044;-83
2022/10/07 13:41:05;;;;;;;3.72;1.63;;;16.50;99.90;;;;;;5059964;28;20386;-82
2022/10/07 13:43:34;;;;;;;2.35;1.25;;;16.60;99.90;;;;;;5036456;28;20565;-83
2022/10/07 13:46:01;;;;;;;2.03;1.33;;;16.50;99.90;;;;;;5047110;28;20103;-83
2022/10/07 13:48:33;;;;;;;3.67;1.50;;;16.40;99.90;;;;;;5061002;28;20036;-83
2022/10/07 13:51:00;;;;;;;3.17;1.63;;;16.50;99.90;;;;;;5036276;28;20105;-83
2022/10/07 13:53:33;;;;;;;5.50;1.20;;;16.40;99.90;;;;;;5065321;28;20578;-83
2022/10/07 13:56:21;;;;;;;4.47;1.50;;;16.40;99.90;;;;;;5036444;28;20040;-82
2022/10/07 13:58:47;;;;;;;2.70;1.17;;;16.40;99.90;;;;;;5042258;28;20032;-83
2022/10/07 14:01:14;;;;;;;3.05;1.55;;;16.30;99.90;;;;;;5048424;28;20416;-82
2022/10/07 14:03:59;;;;;;;3.88;1.40;;;16.30;99.90;;;;;;5059888;28;20564;-83
2022/10/07 14:06:52;;;;;;;3.85;1.40;;;16.20;99.90;;;;;;5038213;28;20401;-83
2022/10/07 14:09:30;;;;;;;3.95;2.20;;;16.10;99.90;;;;;;5053676;28;20389;-83
2022/10/07 14:12:09;;;;;;;2.60;1.42;;;16.00;99.90;;;;;;5060258;28;20672;-83
2022/10/07 14:14:46;;;;;;;5.05;1.60;;;15.90;99.90;;;;;;5040849;28;20032;-83
2022/10/07 14:17:31;;;;;;;2.85;1.50;;;15.80;99.90;;;;;;5045905;28;20032;-83
2022/10/07 14:20:04;;;;;;;2.27;1.77;;;15.70;99.90;;;;;;5054133;28;20037;-83
2022/10/07 14:22:37;;;;;;;2.20;1.40;;;15.70;99.90;;;;;;5045182;28;20067;-82
2022/10/07 14:25:14;;;;;;;2.35;1.58;;;15.70;99.90;;;;;;5061687;28;20104;-82
2022/10/07 14:27:46;;;;;;;2.40;1.33;;;15.60;99.90;;;;;;5031946;28;20036;-82
2022/10/07 14:36:16;;;;;;;2.67;1.55;;;15.60;99.90;;;;;;5064757;28;20027;-82
2022/10/07 14:38:44;;;;;;;1.95;1.30;;;15.60;99.90;;;;;;5028140;28;20021;-83
2022/10/07 14:41:11;;;;;;;3.80;1.40;;;15.50;99.90;;;;;;5065012;28;20166;-83
2022/10/07 14:43:39;;;;;;;2.78;1.55;;;15.50;99.90;;;;;;5044375;28;20039;-83
2022/10/07 14:46:16;;;;;;;4.03;1.38;;;15.50;99.90;;;;;;5058768;28;20101;-83
2022/10/07 14:48:42;;;;;;;3.10;1.60;;;15.40;99.90;;;;;;5061905;28;20424;-83
2022/10/07 14:51:09;;;;;;;3.75;1.60;;;15.40;99.90;;;;;;5062230;28;20029;-83
2022/10/07 14:53:36;;;;;;;4.43;1.40;;;15.40;99.90;;;;;;5047699;28;20032;-82
2022/10/07 14:56:03;;;;;;;6.53;2.03;;;15.30;99.90;;;;;;5029127;28;20131;-83
2022/10/07 14:58:29;;;;;;;4.75;1.80;;;15.30;99.90;;;;;;5032025;28;20042;-83
2022/10/07 15:00:55;;;;;;;1.90;1.50;;;15.30;99.90;;;;;;5015398;28;20033;-83
2022/10/07 15:03:23;;;;;;;2.55;1.77;;;15.30;99.90;;;;;;5050447;28;20044;-83
2022/10/07 15:05:49;;;;;;;13.13;2.70;;;15.20;99.90;;;;;;5043735;28;20025;-83
2022/10/07 15:08:15;;;;;;;5.43;1.50;;;15.20;99.90;;;;;;5045901;28;20568;-82
2022/10/07 15:10:41;;;;;;;4.30;1.90;;;15.10;99.90;;;;;;5030856;28;20036;-83
2022/10/07 15:13:08;;;;;;;3.05;1.60;;;15.10;99.90;;;;;;5064189;28;20031;-83
2022/10/07 15:15:42;;;;;;;1.88;1.55;;;15.10;99.90;;;;;;5063573;28;20476;-83
2022/10/07 15:18:10;;;;;;;2.20;1.50;;;15.00;99.90;;;;;;5060677;28;20105;-83
2022/10/07 15:20:38;;;;;;;1.80;1.58;;;14.90;99.90;;;;;;5039868;28;20035;-83
2022/10/07 15:23:05;;;;;;;3.08;1.80;;;14.80;99.90;;;;;;5056317;28;20036;-83
2022/10/07 15:25:31;;;;;;;1.92;1.73;;;14.70;99.90;;;;;;5046605;28;20044;-83
2022/10/07 15:27:59;;;;;;;4.38;1.73;;;14.70;99.90;;;;;;5048359;28;20094;-83
2022/10/07 15:30:29;;;;;;;3.92;2.28;;;14.70;99.90;;;;;;5045917;28;20090;-83
2022/10/07 15:32:56;;;;;;;5.47;2.90;;;14.60;99.90;;;;;;5041213;28;20057;-83
2022/10/07 15:35:23;;;;;;;4.40;3.65;;;14.60;99.90;;;;;;5046340;28;20036;-83
2022/10/07 15:37:51;;;;;;;5.25;3.03;;;14.60;99.90;;;;;;5030964;28;20082;-83
2022/10/07 15:40:17;;;;;;;4.25;2.83;;;14.60;99.90;;;;;;5046003;28;20052;-83
2022/10/07 15:42:43;;;;;;;4.10;2.65;;;14.50;99.90;;;;;;5061975;28;20485;-82
2022/10/07 15:45:10;;;;;;;5.15;3.78;;;14.50;99.90;;;;;;5041004;28;20040;-83
2022/10/07 15:47:37;;;;;;;3.92;2.72;;;14.50;99.90;;;;;;5040488;28;20029;-83
2022/10/07 15:50:03;;;;;;;3.45;2.60;;;14.50;99.90;;;;;;5054265;28;20621;-83
2022/10/07 15:52:29;;;;;;;3.15;2.50;;;14.50;99.90;;;;;;5029675;28;20036;-83
2022/10/07 15:54:55;;;;;;;7.10;3.83;;;14.40;99.90;;;;;;5038193;28;20093;-83
2022/10/07 15:57:23;;;;;;;8.52;5.90;;;14.40;99.90;;;;;;5056238;28;20017;-83
2022/10/07 15:59:53;;;;;;;11.32;7.80;;;14.40;99.90;;;;;;5030417;28;20416;-83
2022/10/07 16:02:22;;;;;;;8.35;6.32;;;14.30;99.90;;;;;;5045328;28;20493;-83
2022/10/07 16:04:48;;;;;;;10.52;4.40;;;14.30;99.90;;;;;;5047180;28;20052;-83
2022/10/07 16:07:15;;;;;;;7.28;4.28;;;14.30;99.90;;;;;;5044336;28;20451;-83
2022/10/07 16:09:41;;;;;;;5.80;4.03;;;14.30;99.90;;;;;;5044107;28;20044;-83
2022/10/07 16:12:07;;;;;;;5.80;4.28;;;14.20;99.90;;;;;;5039383;28;20082;-83
2022/10/07 16:14:33;;;;;;;5.85;3.30;;;14.20;99.90;;;;;;5033377;28;20754;-83
2022/10/07 16:16:59;;;;;;;6.88;3.47;;;14.20;99.90;;;;;;5030851;28;20032;-83
2022/10/07 16:19:25;;;;;;;3.83;3.28;;;14.00;99.90;;;;;;5014024;28;20025;-83
2022/10/07 16:21:51;;;;;;;3.95;3.05;;;14.00;99.90;;;;;;5046236;28;20077;-83
2022/10/07 16:24:19;;;;;;;12.15;4.15;;;13.90;99.90;;;;;;5032856;28;20146;-83
2022/10/07 16:26:46;;;;;;;6.78;3.67;;;13.80;99.90;;;;;;5054008;28;20056;-82
2022/10/07 16:31:59;;;;;;;3.92;2.97;;;13.60;99.90;;;;;;5062842;28;20039;-83
2022/10/07 16:34:26;;;;;;;8.88;3.72;;;13.50;99.90;;;;;;5063575;28;20036;-83
2022/10/07 16:36:53;;;;;;;16.40;9.90;;;13.50;99.90;;;;;;5045328;28;20028;-83
2022/10/07 16:39:20;;;;;;;12.93;8.15;;;13.40;99.90;;;;;;5046651;28;20037;-83
2022/10/07 16:41:47;;;;;;;6.78;4.38;;;13.30;99.90;;;;;;5042431;28;20037;-83
2022/10/07 16:44:14;;;;;;;6.20;3.53;;;13.20;99.90;;;;;;5026290;28;20110;-83
2022/10/07 16:46:40;;;;;;;5.65;3.20;;;13.10;99.90;;;;;;5055471;28;20039;-83
2022/10/07 16:49:09;;;;;;;5.30;3.53;;;13.10;99.90;;;;;;5063576;28;20037;-83
2022/10/07 16:51:36;;;;;;;5.70;3.60;;;13.00;99.90;;;;;;5048697;28;20678;-83
2022/10/07 16:54:05;;;;;;;4.28;3.25;;;12.90;99.90;;;;;;5026526;28;20067;-83
2022/10/07 16:56:33;;;;;;;5.15;3.53;;;12.90;99.90;;;;;;5035029;28;20045;-83
2022/10/07 16:59:01;;;;;;;6.85;4.20;;;12.80;99.90;;;;;;5041849;28;20135;-83
2022/10/07 17:01:29;;;;;;;7.32;4.10;;;12.80;99.90;;;;;;5066293;28;20068;-82
2022/10/07 17:03:56;;;;;;;8.45;6.30;;;12.70;99.90;;;;;;5039500;28;20033;-83
2022/10/07 17:06:23;;;;;;;12.93;7.40;;;12.70;99.90;;;;;;5040651;28;20128;-83
2022/10/07 17:08:49;;;;;;;16.13;12.93;;;12.70;99.90;;;;;;5050206;28;20082;-83
2022/10/07 17:11:29;;;;;;;170.75;102.30;;;12.70;99.90;;;;;;5049413;28;20044;-83
2022/10/07 17:14:01;;;;;;;24.17;15.25;;;12.70;99.90;;;;;;5064653;28;20039;-83
2022/10/07 17:16:31;;;;;;;10.98;7.57;;;12.70;99.90;;;;;;5036269;28;20086;-81
2022/10/07 17:18:57;;;;;;;11.40;6.53;;;12.60;99.90;;;;;;5048446;28;20032;-82
2022/10/07 17:21:23;;;;;;;8.02;5.38;;;12.60;99.90;;;;;;5047808;28;20109;-82
2022/10/07 17:23:48;;;;;;;6.20;5.53;;;12.50;99.90;;;;;;5046281;28;20041;-81
2022/10/07 17:26:16;;;;;;;7.28;5.50;;;12.50;99.90;;;;;;5065555;28;20037;-82
2022/10/07 17:28:41;;;;;;;4.63;3.92;;;12.40;99.90;;;;;;5066014;28;20047;-81
2022/10/07 17:31:12;;;;;;;7.97;4.38;;;12.40;99.90;;;;;;5032846;28;20037;-82
2022/10/07 17:33:39;;;;;;;7.05;4.20;;;12.40;99.90;;;;;;5069706;28;20542;-82
2022/10/07 17:36:07;;;;;;;9.63;4.55;;;12.30;99.90;;;;;;5044706;28;20133;-81
2022/10/07 17:38:51;;;;;;;5.47;4.88;;;12.30;99.90;;;;;;5052904;28;20158;-82
2022/10/07 17:41:19;;;;;;;6.70;5.40;;;12.20;99.90;;;;;;5068865;28;20032;-82
2022/10/07 17:43:46;;;;;;;6.18;5.38;;;12.20;99.90;;;;;;5069614;28;20042;-82
2022/10/07 17:46:13;;;;;;;6.05;5.28;;;12.10;99.90;;;;;;5053006;28;20500;-82
2022/10/07 17:48:44;;;;;;;6.50;5.25;;;12.10;99.90;;;;;;5053097;28;20120;-82
2022/10/07 17:51:11;;;;;;;9.93;5.85;;;12.10;99.90;;;;;;5041563;28;20570;-81
2022/10/07 17:53:40;;;;;;;9.90;6.95;;;12.10;99.90;;;;;;5069206;28;20046;-82
2022/10/07 17:56:09;;;;;;;11.90;7.38;;;12.00;99.90;;;;;;5068723;28;20090;-81
2022/10/07 17:58:39;;;;;;;11.52;6.97;;;12.00;99.90;;;;;;5053145;28;20067;-82
2022/10/07 18:01:12;;;;;;;11.82;8.15;;;12.00;99.90;;;;;;5052533;28;20055;-82
2022/10/07 18:03:42;;;;;;;15.05;9.32;;;12.00;99.90;;;;;;5052962;28;20393;-82
2022/10/07 18:06:09;;;;;;;12.48;9.18;;;12.00;99.90;;;;;;5036485;28;20036;-82
2022/10/07 18:08:39;;;;;;;14.77;9.45;;;11.90;99.90;;;;;;5051113;28;20040;-82
2022/10/07 18:11:05;;;;;;;14.13;10.18;;;11.90;99.90;;;;;;5056999;28;20040;-82
2022/10/07 18:16:19;;;;;;;16.30;10.57;;;11.80;99.90;;;;;;5040953;28;20087;-82
2022/10/07 18:18:46;;;;;;;13.50;10.98;;;11.80;99.90;;;;;;5052630;28;20037;-82
2022/10/07 18:21:12;;;;;;;17.50;11.35;;;11.70;99.90;;;;;;5052090;28;20044;-82
2022/10/07 18:23:39;;;;;;;19.02;13.75;;;11.70;99.90;;;;;;5035336;28;20131;-82
2022/10/07 18:26:12;;;;;;;19.15;14.13;;;11.70;99.90;;;;;;5068743;28;20040;-81
2022/10/07 18:28:38;;;;;;;16.58;12.05;;;11.80;99.90;;;;;;5036446;28;20072;-82
2022/10/07 18:31:05;;;;;;;15.50;11.63;;;11.80;99.90;;;;;;5035808;28;20028;-81
2022/10/07 18:33:32;;;;;;;19.45;12.80;;;11.90;99.90;;;;;;5052213;28;20037;-82
2022/10/07 18:36:00;;;;;;;15.10;11.70;;;11.90;99.90;;;;;;5043514;28;20040;-81
2022/10/07 18:38:37;;;;;;;17.23;12.35;;;11.90;99.90;;;;;;5052055;28;20054;-81
2022/10/07 18:41:09;;;;;;;13.57;10.32;;;12.00;99.90;;;;;;5039525;28;20033;-82
2022/10/07 18:43:35;;;;;;;13.95;9.18;;;12.00;99.90;;;;;;5035370;28;20032;-81
2022/10/07 18:46:10;;;;;;;13.00;9.55;;;12.00;99.90;;;;;;5068347;28;20028;-82
2022/10/07 18:48:38;;;;;;;16.23;9.52;;;12.00;99.90;;;;;;5052433;28;20082;-82
2022/10/07 18:51:04;;;;;;;12.43;8.52;;;12.00;99.90;;;;;;5051491;28;20039;-81
2022/10/07 18:53:32;;;;;;;13.65;7.60;;;12.00;99.90;;;;;;5051697;28;20085;-82
2022/10/07 18:56:04;;;;;;;13.35;7.45;;;12.00;99.90;;;;;;5051439;28;20021;-82
2022/10/07 18:58:35;;;;;;;12.88;7.63;;;12.10;99.90;;;;;;5051939;28;20028;-82
2022/10/07 19:01:15;;;;;;;8.88;6.55;;;12.10;99.90;;;;;;5043416;28;20059;-82
2022/10/07 19:03:42;;;;;;;9.38;6.20;;;12.10;99.90;;;;;;5051424;28;20081;-82
2022/10/07 19:06:19;;;;;;;10.00;5.90;;;12.10;99.90;;;;;;5051671;28;20040;-81
2022/10/07 19:08:45;;;;;;;5.95;4.90;;;12.20;99.90;;;;;;5069370;28;20029;-82
2022/10/07 19:11:16;;;;;;;10.52;5.88;;;12.20;99.90;;;;;;5064017;28;20056;-82
2022/10/07 19:13:46;;;;;;;8.82;6.30;;;12.30;99.90;;;;;;5046048;28;20089;-82
2022/10/07 19:16:17;;;;;;;7.30;5.40;;;12.30;99.90;;;;;;5068861;28;20024;-82
2022/10/07 19:18:44;;;;;;;6.80;4.95;;;12.40;99.90;;;;;;5052058;28;20059;-82
2022/10/07 19:21:11;;;;;;;5.65;4.80;;;12.30;99.90;;;;;;5064996;28;20029;-82
2022/10/07 19:23:38;;;;;;;5.30;4.38;;;12.30;99.90;;;;;;5068501;28;20032;-82
2022/10/07 19:26:05;;;;;;;5.72;4.43;;;12.30;99.90;;;;;;5052071;28;20503;-82
2022/10/07 19:28:34;;;;;;;10.57;5.30;;;12.30;99.90;;;;;;5052307;28;20143;-82
2022/10/07 19:31:17;;;;;;;5.30;4.53;;;12.30;99.90;;;;;;5035283;28;20112;-82
2022/10/07 19:33:48;;;;;;;6.25;5.22;;;12.30;99.90;;;;;;5051756;28;20127;-82
2022/10/07 19:36:15;;;;;;;8.77;4.60;;;12.20;99.90;;;;;;5050940;28;20044;-82
2022/10/07 19:38:43;;;;;;;7.97;7.18;;;12.20;99.90;;;;;;5052144;28;20028;-82
2022/10/07 19:41:12;;;;;;;12.73;7.78;;;12.30;99.90;;;;;;5048550;28;20036;-82
2022/10/07 19:43:39;;;;;;;8.88;6.40;;;12.30;99.90;;;;;;5035478;28;20032;-82
2022/10/07 19:46:05;;;;;;;6.57;5.70;;;12.20;99.90;;;;;;5051727;28;20070;-82
2022/10/07 19:48:31;;;;;;;7.97;6.22;;;12.20;99.90;;;;;;5052164;28;20039;-81
2022/10/07 19:51:00;;;;;;;7.68;6.00;;;12.20;99.90;;;;;;5068284;28;20032;-82
2022/10/07 19:53:33;;;;;;;10.43;6.32;;;12.10;99.90;;;;;;5068357;28;20040;-82
2022/10/07 19:56:08;;;;;;;9.27;5.72;;;12.10;99.90;;;;;;5035652;28;20082;-82
2022/10/07 19:58:34;;;;;;;9.02;6.05;;;12.00;99.90;;;;;;5068861;28;20044;-82
2022/10/07 20:01:04;;;;;;;7.57;6.35;;;12.00;99.90;;;;;;5039714;28;20040;-82
2022/10/07 20:03:30;;;;;;;6.20;5.15;;;12.00;99.90;;;;;;5068536;28;20033;-82
2022/10/07 20:05:59;;;;;;;7.90;5.43;;;11.90;99.90;;;;;;5051831;28;20086;-82
2022/10/07 20:08:27;;;;;;;7.57;5.32;;;11.90;99.90;;;;;;5068466;28;20082;-81
2022/10/07 20:10:52;;;;;;;6.43;5.07;;;11.90;99.90;;;;;;5038597;28;20519;-82
2022/10/07 20:13:18;;;;;;;6.32;5.07;;;11.80;99.90;;;;;;5047601;28;20066;-82
2022/10/07 20:15:44;;;;;;;8.95;5.38;;;11.80;99.90;;;;;;5051478;28;20035;-82
2022/10/07 20:18:10;;;;;;;8.93;6.28;;;11.70;99.90;;;;;;5051735;28;20051;-82
2022/10/07 20:20:35;;;;;;;9.35;6.90;;;11.70;99.90;;;;;;5024696;28;20417;-82